createdAt,value
2022-08-05T00:00:46.275Z,0.00
2022-08-05T00:01:48.805Z,0.00
2022-08-05T00:02:51.766Z,0.00
2022-08-05T00:03:45.433Z,0.00
2022-08-05T00:04:44.459Z,0.00
2022-08-05T00:06:04.905Z,0.00
2022-08-05T00:06:45.399Z,0.00
2022-08-05T00:08:00.245Z,0.00
2022-08-05T00:08:45.391Z,0.00
2022-08-05T00:09:44.368Z,0.00
2022-08-05T00:10:44.348Z,0.00
2022-08-05T00:11:49.565Z,0.00
2022-08-05T00:12:56.440Z,0.00
2022-08-05T00:13:45.380Z,0.00
2022-08-05T00:14:45.299Z,0.00
2022-08-05T00:15:55.798Z,0.00
2022-08-05T00:16:52.142Z,0.00
2022-08-05T00:17:45.280Z,0.00
2022-08-05T00:18:44.471Z,0.00
2022-08-05T00:19:45.795Z,0.00
2022-08-05T00:20:45.294Z,0.00
2022-08-05T00:21:44.240Z,0.00
2022-08-05T00:22:47.199Z,0.00
2022-08-05T00:23:53.385Z,0.00
2022-08-05T00:24:45.185Z,0.00
2022-08-05T00:25:45.706Z,0.00
2022-08-05T00:26:50.822Z,0.00
2022-08-05T00:27:45.155Z,0.00
2022-08-05T00:28:44.165Z,0.00
2022-08-05T00:29:44.136Z,0.00
2022-08-05T00:30:44.272Z,0.00
2022-08-05T00:32:09.451Z,0.00
2022-08-05T00:32:45.104Z,0.00
2022-08-05T00:34:43.376Z,0.00
2022-08-05T00:35:04.511Z,0.00
2022-08-05T00:35:47.838Z,0.00
2022-08-05T00:37:13.024Z,0.00
2022-08-05T00:37:53.103Z,0.00
2022-08-05T00:38:45.047Z,0.00
2022-08-05T00:39:58.089Z,0.00
2022-08-05T00:40:53.303Z,0.00
2022-08-05T00:41:51.475Z,0.00
2022-08-05T00:42:49.101Z,0.00
2022-08-05T00:43:47.029Z,0.00
2022-08-05T00:44:44.991Z,0.00
2022-08-05T00:45:44.095Z,0.00
2022-08-05T00:46:43.966Z,0.00
2022-08-05T00:47:57.103Z,0.00
2022-08-05T00:48:51.265Z,0.00
2022-08-05T00:49:51.450Z,0.00
2022-08-05T00:50:45.984Z,0.00
2022-08-05T00:51:50.503Z,0.00
2022-08-05T00:52:45.458Z,0.00
2022-08-05T00:54:00.362Z,0.00
2022-08-05T00:54:44.864Z,0.00
2022-08-05T00:55:43.902Z,0.00
2022-08-05T00:56:51.359Z,0.00
2022-08-05T00:57:58.411Z,0.00
2022-08-05T00:58:44.962Z,0.00
2022-08-05T00:59:44.717Z,0.00
2022-08-05T01:00:43.879Z,0.00
2022-08-05T01:01:48.522Z,0.00
2022-08-05T01:02:44.798Z,0.00
2022-08-05T01:03:43.764Z,0.00
2022-08-05T01:04:44.815Z,0.00
2022-08-05T01:05:44.777Z,0.00
2022-08-05T01:06:48.480Z,0.00
2022-08-05T01:08:30.428Z,0.00
2022-08-05T01:08:47.224Z,0.00
2022-08-05T01:09:43.726Z,0.00
2022-08-05T01:10:52.146Z,0.00
2022-08-05T01:11:44.687Z,0.00
2022-08-05T01:12:54.361Z,0.00
2022-08-05T01:13:58.471Z,0.00
2022-08-05T01:14:44.692Z,0.00
2022-08-05T01:15:47.907Z,0.00
2022-08-05T01:16:44.107Z,0.00
2022-08-05T01:17:44.179Z,0.00
2022-08-05T01:18:48.158Z,0.00
2022-08-05T01:20:02.276Z,0.00
2022-08-05T01:20:44.600Z,0.00
2022-08-05T01:21:43.571Z,0.00
2022-08-05T01:22:46.791Z,0.00
2022-08-05T01:23:43.542Z,0.00
2022-08-05T01:24:44.540Z,0.00
2022-08-05T01:25:43.522Z,0.00
2022-08-05T01:26:44.511Z,0.00
2022-08-05T01:27:55.242Z,0.00
2022-08-05T01:28:44.493Z,0.00
2022-08-05T01:29:43.482Z,0.00
2022-08-05T01:30:52.440Z,0.00
2022-08-05T01:31:45.092Z,0.00
2022-08-05T01:32:43.445Z,0.00
2022-08-05T01:33:43.434Z,0.00
2022-08-05T01:34:44.467Z,0.00
2022-08-05T01:35:51.259Z,0.00
2022-08-05T01:36:46.963Z,0.00
2022-08-05T01:37:44.266Z,0.00
2022-08-05T01:38:43.390Z,0.00
2022-08-05T01:39:45.981Z,0.00
2022-08-05T01:40:43.387Z,0.00
2022-08-05T01:41:44.516Z,0.00
2022-08-05T01:42:43.329Z,0.00
2022-08-05T01:43:43.348Z,0.00
2022-08-05T01:44:43.308Z,0.00
2022-08-05T01:45:43.408Z,0.00
2022-08-05T01:46:46.498Z,0.00
2022-08-05T01:47:43.669Z,0.00
2022-08-05T01:48:43.268Z,0.00
2022-08-05T01:50:01.704Z,0.00
2022-08-05T01:50:51.123Z,0.00
2022-08-05T01:51:44.245Z,0.00
2022-08-05T01:52:44.277Z,0.00
2022-08-05T01:53:57.148Z,0.00
2022-08-05T01:54:46.037Z,0.00
2022-08-05T01:55:43.211Z,0.00
2022-08-05T01:58:10.721Z,0.00
2022-08-05T01:58:14.609Z,0.00
2022-08-05T01:58:45.037Z,0.00
2022-08-05T01:59:47.034Z,0.00
2022-08-05T02:00:43.142Z,0.00
2022-08-05T02:01:43.177Z,0.00
2022-08-05T02:02:51.126Z,0.00
2022-08-05T02:03:44.103Z,0.00
2022-08-05T02:04:43.091Z,0.00
2022-08-05T02:05:43.124Z,0.00
2022-08-05T02:06:45.001Z,0.00
2022-08-05T02:07:43.066Z,0.00
2022-08-05T02:08:54.782Z,0.00
2022-08-05T02:09:44.085Z,0.00
2022-08-05T02:10:43.035Z,0.00
2022-08-05T02:11:47.745Z,0.00
2022-08-05T02:12:44.005Z,0.00
2022-08-05T02:13:53.308Z,0.00
2022-08-05T02:14:44.000Z,0.00
2022-08-05T02:15:42.987Z,0.00
2022-08-05T02:16:44.074Z,0.00
2022-08-05T02:18:33.341Z,0.00
2022-08-05T02:18:43.937Z,0.00
2022-08-05T02:19:47.559Z,0.00
2022-08-05T02:20:42.918Z,0.00
2022-08-05T02:21:46.716Z,0.00
2022-08-05T02:22:43.909Z,0.00
2022-08-05T02:23:42.886Z,0.00
2022-08-05T02:24:42.870Z,0.00
2022-08-05T02:25:49.006Z,0.00
2022-08-05T02:26:53.946Z,0.00
2022-08-05T02:27:57.975Z,0.00
2022-08-05T02:28:45.870Z,0.00
2022-08-05T02:29:59.077Z,0.00
2022-08-05T02:30:51.712Z,0.00
2022-08-05T02:31:43.814Z,0.00
2022-08-05T02:32:42.812Z,0.00
2022-08-05T02:33:42.846Z,0.00
2022-08-05T02:34:42.764Z,0.00
2022-08-05T02:35:49.882Z,0.00
2022-08-05T02:36:43.752Z,0.00
2022-08-05T02:37:42.755Z,0.00
2022-08-05T02:38:43.733Z,0.00
2022-08-05T02:39:47.771Z,0.00
2022-08-05T02:40:43.706Z,0.00
2022-08-05T02:41:57.596Z,0.00
2022-08-05T02:42:43.675Z,0.00
2022-08-05T02:44:06.485Z,0.00
2022-08-05T02:44:43.725Z,0.00
2022-08-05T02:45:52.706Z,0.00
2022-08-05T02:46:53.340Z,0.00
2022-08-05T02:48:07.702Z,0.00
2022-08-05T02:48:43.626Z,0.00
2022-08-05T02:49:42.617Z,0.00
2022-08-05T02:50:44.158Z,0.00
2022-08-05T02:52:02.882Z,0.00
2022-08-05T02:52:43.569Z,0.00
2022-08-05T02:53:42.557Z,0.00
2022-08-05T02:54:50.596Z,0.00
2022-08-05T02:55:52.149Z,0.00
2022-08-05T02:56:43.539Z,0.00
2022-08-05T02:58:20.175Z,0.00
2022-08-05T02:58:43.898Z,0.00
2022-08-05T02:59:50.218Z,0.00
2022-08-05T03:00:44.042Z,0.00
2022-08-05T03:01:42.574Z,0.00
2022-08-05T03:02:42.858Z,0.00
2022-08-05T03:04:04.138Z,0.00
2022-08-05T03:04:43.455Z,0.00
2022-08-05T03:06:54.058Z,0.00
2022-08-05T03:06:56.886Z,0.00
2022-08-05T03:08:04.579Z,0.00
2022-08-05T03:08:43.404Z,0.00
2022-08-05T03:09:43.937Z,0.00
2022-08-05T03:10:43.365Z,0.00
2022-08-05T03:11:55.263Z,0.00
2022-08-05T03:12:43.356Z,0.00
2022-08-05T03:13:52.047Z,0.00
2022-08-05T03:14:45.983Z,0.00
2022-08-05T03:15:42.315Z,0.00
2022-08-05T03:16:42.304Z,0.00
2022-08-05T03:17:44.838Z,0.00
2022-08-05T03:18:42.284Z,0.00
2022-08-05T03:19:42.266Z,0.00
2022-08-05T03:20:44.598Z,0.00
2022-08-05T03:21:49.315Z,0.00
2022-08-05T03:22:43.928Z,0.00
2022-08-05T03:23:42.229Z,0.00
2022-08-05T03:24:42.218Z,0.00
2022-08-05T03:26:04.615Z,0.00
2022-08-05T03:26:43.200Z,0.00
2022-08-05T03:27:59.574Z,0.00
2022-08-05T03:28:43.172Z,0.00
2022-08-05T03:29:45.919Z,0.00
2022-08-05T03:30:43.149Z,0.00
2022-08-05T03:31:56.900Z,0.00
2022-08-05T03:32:43.141Z,0.00
2022-08-05T03:33:51.481Z,0.00
2022-08-05T03:34:50.589Z,0.00
2022-08-05T03:35:43.091Z,0.00
2022-08-05T03:36:42.080Z,4.00
2022-08-05T03:37:46.725Z,4.00
2022-08-05T03:38:42.071Z,4.00
2022-08-05T03:39:57.679Z,4.00
2022-08-05T03:40:44.925Z,0.00
2022-08-05T03:41:45.413Z,4.00
2022-08-05T03:42:52.075Z,4.00
2022-08-05T03:44:09.467Z,4.00
2022-08-05T03:44:42.984Z,4.00
2022-08-05T03:45:55.115Z,8.00
2022-08-05T03:46:42.965Z,4.00
2022-08-05T03:47:42.066Z,8.00
2022-08-05T03:48:41.945Z,8.00
2022-08-05T03:49:51.267Z,16.00
2022-08-05T03:50:42.916Z,12.00
2022-08-05T03:52:49.325Z,20.00
2022-08-05T03:54:59.353Z,20.00
2022-08-05T03:55:51.581Z,20.00
2022-08-05T03:55:53.701Z,24.00
2022-08-05T03:56:04.637Z,24.00
2022-08-05T03:56:42.886Z,28.00
2022-08-05T03:57:44.376Z,32.00
2022-08-05T03:58:41.848Z,36.00
2022-08-05T03:59:47.302Z,40.00
2022-08-05T04:00:44.246Z,44.00
2022-08-05T04:01:42.854Z,48.00
2022-08-05T04:02:52.052Z,56.00
2022-08-05T04:03:56.898Z,60.00
2022-08-05T04:04:42.768Z,64.00
2022-08-05T04:05:41.749Z,72.00
2022-08-05T04:06:47.990Z,80.00
2022-08-05T04:07:57.403Z,84.00
2022-08-05T04:08:42.732Z,92.00
2022-08-05T04:09:53.538Z,100.00
2022-08-05T04:10:42.707Z,108.00
2022-08-05T04:11:50.491Z,120.00
2022-08-05T04:13:13.924Z,132.00
2022-08-05T04:14:17.883Z,144.00
2022-08-05T04:15:15.554Z,152.00
2022-08-05T04:16:14.274Z,160.00
2022-08-05T04:17:13.879Z,176.00
2022-08-05T04:18:22.492Z,184.00
2022-08-05T04:19:14.839Z,196.00
2022-08-05T04:20:14.182Z,208.00
2022-08-05T04:21:13.819Z,216.00
2022-08-05T04:22:14.840Z,220.00
2022-08-05T04:23:16.156Z,224.00
2022-08-05T04:24:18.706Z,232.00
2022-08-05T04:25:14.772Z,236.00
2022-08-05T04:26:13.785Z,244.00
2022-08-05T04:27:13.753Z,248.00
2022-08-05T04:28:13.852Z,248.00
2022-08-05T04:29:14.385Z,240.00
2022-08-05T04:30:13.750Z,236.00
2022-08-05T04:31:13.713Z,232.00
2022-08-05T04:32:13.719Z,228.00
2022-08-05T04:33:14.715Z,236.00
2022-08-05T04:34:31.294Z,244.00
2022-08-05T04:35:19.653Z,264.00
2022-08-05T04:36:44.657Z,296.00
2022-08-05T04:37:14.647Z,348.00
2022-08-05T04:38:15.601Z,416.00
2022-08-05T04:39:13.724Z,504.00
2022-08-05T04:40:13.634Z,600.00
2022-08-05T04:41:14.615Z,700.00
2022-08-05T04:42:13.616Z,816.00
2022-08-05T04:43:16.664Z,952.00
2022-08-05T04:44:13.653Z,1112.00
2022-08-05T04:45:22.823Z,1292.00
2022-08-05T04:46:14.568Z,1492.00
2022-08-05T04:47:18.582Z,1712.00
2022-08-05T04:48:18.543Z,1960.00
2022-08-05T04:49:15.025Z,2228.00
2022-08-05T04:50:13.578Z,2528.00
2022-08-05T04:51:14.496Z,2888.00
2022-08-05T04:52:13.488Z,3304.00
2022-08-05T04:53:13.486Z,3752.00
2022-08-05T04:54:13.532Z,4168.00
2022-08-05T04:55:14.655Z,4428.00
2022-08-05T04:56:33.191Z,4528.00
2022-08-05T04:57:14.429Z,4740.00
2022-08-05T04:58:13.455Z,5172.00
2022-08-05T04:59:22.205Z,5552.00
2022-08-05T05:00:14.400Z,5676.00
2022-08-05T05:01:13.466Z,5568.00
2022-08-05T05:02:36.819Z,5388.00
2022-08-05T05:03:14.399Z,5184.00
2022-08-05T05:04:14.362Z,4980.00
2022-08-05T05:05:16.837Z,4740.00
2022-08-05T05:06:35.899Z,4400.00
2022-08-05T05:07:15.943Z,3784.00
2022-08-05T05:08:14.147Z,3600.00
2022-08-05T05:09:17.083Z,3780.00
2022-08-05T05:10:13.325Z,4124.00
2022-08-05T05:11:15.207Z,4700.00
2022-08-05T05:12:13.337Z,5036.00
2022-08-05T05:13:13.268Z,5156.00
2022-08-05T05:14:16.003Z,5248.00
2022-08-05T05:15:13.247Z,5200.00
2022-08-05T05:16:13.257Z,4656.00
2022-08-05T05:17:13.207Z,4284.00
2022-08-05T05:18:13.215Z,4416.00
2022-08-05T05:19:23.636Z,4860.00
2022-08-05T05:20:14.196Z,5208.00
2022-08-05T05:21:13.177Z,5212.00
2022-08-05T05:22:24.016Z,4984.00
2022-08-05T05:23:19.971Z,4752.00
2022-08-05T05:24:14.180Z,4412.00
2022-08-05T05:25:16.781Z,4164.00
2022-08-05T05:26:13.140Z,3896.00
2022-08-05T05:27:13.110Z,3624.00
2022-08-05T05:28:13.163Z,3364.00
2022-08-05T05:29:14.702Z,3348.00
2022-08-05T05:30:15.617Z,3476.00
2022-08-05T05:31:14.065Z,3840.00
2022-08-05T05:32:15.763Z,4432.00
2022-08-05T05:33:17.298Z,4864.00
2022-08-05T05:34:13.082Z,5060.00
2022-08-05T05:35:13.022Z,4900.00
2022-08-05T05:36:14.723Z,4648.00
2022-08-05T05:37:13.009Z,4524.00
2022-08-05T05:38:14.119Z,4568.00
2022-08-05T05:39:13.045Z,4724.00
2022-08-05T05:40:13.040Z,4964.00
2022-08-05T05:41:12.953Z,5208.00
2022-08-05T05:42:12.964Z,5464.00
2022-08-05T05:43:12.945Z,5704.00
2022-08-05T05:44:15.765Z,5936.00
2022-08-05T05:45:14.191Z,6120.00
2022-08-05T05:46:17.461Z,6224.00
2022-08-05T05:47:21.525Z,6276.00
2022-08-05T05:48:16.109Z,6360.00
2022-08-05T05:49:22.568Z,6548.00
2022-08-05T05:50:16.423Z,6780.00
2022-08-05T05:51:15.462Z,7028.00
2022-08-05T05:52:26.328Z,7264.00
2022-08-05T05:53:22.446Z,7476.00
2022-08-05T05:54:13.877Z,7652.00
2022-08-05T05:55:13.647Z,7608.00
2022-08-05T05:56:12.798Z,7160.00
2022-08-05T05:57:13.809Z,6920.00
2022-08-05T05:58:13.798Z,7044.00
2022-08-05T05:59:12.780Z,7188.00
2022-08-05T06:00:12.849Z,7528.00
2022-08-05T06:01:15.283Z,8296.00
2022-08-05T06:02:12.780Z,9192.00
2022-08-05T06:03:39.766Z,10152.00
2022-08-05T06:04:14.287Z,10956.00
2022-08-05T06:05:16.501Z,11560.00
2022-08-05T06:06:12.767Z,12064.00
2022-08-05T06:07:12.683Z,12576.00
2022-08-05T06:08:12.673Z,13124.00
2022-08-05T06:09:17.077Z,13604.00
2022-08-05T06:10:13.652Z,13928.00
2022-08-05T06:11:13.452Z,14260.00
2022-08-05T06:12:12.613Z,14732.00
2022-08-05T06:13:12.617Z,15492.00
2022-08-05T06:14:12.605Z,16704.00
2022-08-05T06:15:23.595Z,18560.00
2022-08-05T06:16:28.692Z,19168.00
2022-08-05T06:17:22.076Z,19456.00
2022-08-05T06:18:13.683Z,19296.00
2022-08-05T06:19:12.606Z,18720.00
2022-08-05T06:20:18.829Z,18240.00
2022-08-05T06:21:18.586Z,17920.00
2022-08-05T06:22:13.514Z,17952.00
2022-08-05T06:23:12.500Z,17984.00
2022-08-05T06:24:14.777Z,18080.00
2022-08-05T06:25:58.994Z,18016.00
2022-08-05T06:26:21.608Z,17440.00
2022-08-05T06:28:09.008Z,16896.00
2022-08-05T06:28:21.619Z,16244.00
2022-08-05T06:29:23.705Z,15628.00
2022-08-05T06:30:17.695Z,15056.00
2022-08-05T06:31:18.137Z,14684.00
2022-08-05T06:32:25.013Z,13620.00
2022-08-05T06:33:19.044Z,12424.00
2022-08-05T06:34:13.398Z,12568.00
2022-08-05T06:35:15.660Z,12588.00
2022-08-05T06:36:13.419Z,12436.00
2022-08-05T06:37:12.389Z,12688.00
2022-08-05T06:38:12.375Z,12560.00
2022-08-05T06:39:12.375Z,10916.00
2022-08-05T06:40:12.374Z,8552.00
2022-08-05T06:41:12.322Z,7848.00
2022-08-05T06:42:12.344Z,7980.00
2022-08-05T06:43:51.512Z,7896.00
2022-08-05T06:44:13.306Z,7592.00
2022-08-05T06:45:21.322Z,7644.00
2022-08-05T06:46:13.271Z,7912.00
2022-08-05T06:47:42.173Z,7840.00
2022-08-05T06:48:52.647Z,7472.00
2022-08-05T06:49:13.238Z,7004.00
2022-08-05T06:50:12.199Z,7116.00
2022-08-05T06:51:26.633Z,7236.00
2022-08-05T06:52:38.252Z,6888.00
2022-08-05T06:53:27.825Z,6796.00
2022-08-05T06:54:19.075Z,7500.00
2022-08-05T06:55:13.140Z,7988.00
2022-08-05T06:56:25.847Z,8144.00
2022-08-05T06:57:56.756Z,8492.00
2022-08-05T06:58:30.155Z,7864.00
2022-08-05T06:59:13.318Z,8168.00
2022-08-05T07:00:12.104Z,9332.00
2022-08-05T07:01:13.294Z,9884.00
2022-08-05T07:02:12.082Z,9776.00
2022-08-05T07:03:12.054Z,8812.00
2022-08-05T07:04:13.938Z,8144.00
2022-08-05T07:05:14.197Z,7588.00
2022-08-05T07:06:15.124Z,6888.00
2022-08-05T07:07:12.034Z,5940.00
2022-08-05T07:08:12.015Z,4984.00
2022-08-05T07:09:11.994Z,4216.00
2022-08-05T07:10:14.903Z,3684.00
2022-08-05T07:11:15.386Z,3448.00
2022-08-05T07:12:12.064Z,3464.00
2022-08-05T07:13:11.965Z,4288.00
2022-08-05T07:14:20.689Z,5568.00
2022-08-05T07:15:12.938Z,6936.00
2022-08-05T07:16:12.947Z,8352.00
2022-08-05T07:18:00.456Z,7496.00
2022-08-05T07:18:20.423Z,5844.00
2022-08-05T07:19:15.466Z,6012.00
2022-08-05T07:21:12.860Z,6448.00
2022-08-05T07:22:11.917Z,6604.00
2022-08-05T07:23:12.988Z,7236.00
2022-08-05T07:24:12.900Z,8356.00
2022-08-05T07:25:55.552Z,9724.00
2022-08-05T07:26:13.978Z,10760.00
2022-08-05T07:27:11.808Z,13404.00
2022-08-05T07:28:17.082Z,14720.00
2022-08-05T07:29:12.785Z,14540.00
2022-08-05T07:30:24.367Z,14624.00
2022-08-05T07:31:12.761Z,14904.00
2022-08-05T07:32:11.763Z,14908.00
2022-08-05T07:33:15.592Z,16288.00
2022-08-05T07:34:11.763Z,19104.00
2022-08-05T07:36:03.389Z,21376.00
2022-08-05T07:36:20.042Z,21504.00
2022-08-05T07:37:12.694Z,20768.00
2022-08-05T07:38:12.320Z,19680.00
2022-08-05T07:39:24.491Z,19008.00
2022-08-05T07:40:27.027Z,19104.00
2022-08-05T07:41:35.183Z,20128.00
2022-08-05T07:42:15.145Z,20480.00
2022-08-05T07:43:20.292Z,18816.00
2022-08-05T07:44:18.805Z,16360.00
2022-08-05T07:45:12.607Z,17760.00
2022-08-05T07:46:24.818Z,22144.00
2022-08-05T07:47:13.458Z,25600.00
2022-08-05T07:48:11.650Z,27552.00
2022-08-05T07:49:11.564Z,29376.00
2022-08-05T07:50:11.587Z,28416.00
2022-08-05T07:51:23.773Z,25280.00
2022-08-05T07:52:12.638Z,23456.00
2022-08-05T07:53:11.517Z,20256.00
2022-08-05T07:54:12.736Z,17344.00
2022-08-05T07:55:44.066Z,15848.00
2022-08-05T07:56:38.998Z,14872.00
2022-08-05T07:57:16.795Z,12272.00
2022-08-05T07:58:17.590Z,10736.00
2022-08-05T07:59:12.469Z,9244.00
2022-08-05T08:00:11.671Z,10348.00
2022-08-05T08:01:12.149Z,14928.00
2022-08-05T08:02:16.827Z,13352.00
2022-08-05T08:03:15.354Z,11496.00
2022-08-05T08:04:11.451Z,14640.00
2022-08-05T08:05:11.469Z,17952.00
2022-08-05T08:06:11.392Z,18528.00
2022-08-05T08:07:11.400Z,16680.00
2022-08-05T08:08:12.412Z,18944.00
2022-08-05T08:09:11.363Z,20160.00
2022-08-05T08:10:11.436Z,18208.00
2022-08-05T08:11:13.706Z,15544.00
2022-08-05T08:12:27.285Z,16468.00
2022-08-05T08:13:12.315Z,18464.00
2022-08-05T08:14:11.381Z,18656.00
2022-08-05T08:15:15.747Z,18720.00
2022-08-05T08:16:35.676Z,17952.00
2022-08-05T08:17:15.691Z,17344.00
2022-08-05T08:18:14.121Z,16576.00
2022-08-05T08:20:00.496Z,16364.00
2022-08-05T08:20:43.429Z,17152.00
2022-08-05T08:21:15.956Z,18944.00
2022-08-05T08:22:16.009Z,20256.00
2022-08-05T08:24:00.024Z,18720.00
2022-08-05T08:24:14.044Z,16628.00
2022-08-05T08:25:15.782Z,14960.00
2022-08-05T08:26:12.192Z,12804.00
2022-08-05T08:27:11.178Z,12768.00
2022-08-05T08:28:18.620Z,13044.00
2022-08-05T08:29:29.405Z,13172.00
2022-08-05T08:30:27.618Z,14596.00
2022-08-05T08:31:14.975Z,11168.00
2022-08-05T08:32:12.130Z,10804.00
2022-08-05T08:33:13.882Z,11276.00
2022-08-05T08:34:11.190Z,12996.00
2022-08-05T08:35:13.615Z,14304.00
2022-08-05T08:36:38.581Z,13444.00
2022-08-05T08:37:12.072Z,12696.00
2022-08-05T08:38:16.416Z,12772.00
2022-08-05T08:39:15.605Z,13764.00
2022-08-05T08:40:12.030Z,13840.00
2022-08-05T08:41:11.032Z,12628.00
2022-08-05T08:42:33.801Z,12052.00
2022-08-05T08:44:56.469Z,10916.00
2022-08-05T08:45:20.090Z,13048.00
2022-08-05T08:45:20.173Z,17344.00
2022-08-05T08:46:15.501Z,18528.00
2022-08-05T08:47:21.764Z,18528.00
2022-08-05T08:48:43.715Z,18304.00
2022-08-05T08:50:05.720Z,16928.00
2022-08-05T08:50:30.172Z,17248.00
2022-08-05T08:51:54.630Z,17632.00
2022-08-05T08:52:13.821Z,17472.00
2022-08-05T08:53:12.317Z,14224.00
2022-08-05T08:54:11.014Z,11780.00
2022-08-05T08:55:13.142Z,13896.00
2022-08-05T08:56:11.193Z,11488.00
2022-08-05T08:57:11.331Z,10896.00
2022-08-05T08:58:12.871Z,10832.00
2022-08-05T08:59:19.299Z,10116.00
2022-08-05T09:00:11.823Z,11016.00
2022-08-05T09:01:15.446Z,12820.00
2022-08-05T09:02:11.870Z,15600.00
2022-08-05T09:03:10.785Z,17792.00
2022-08-05T09:04:10.822Z,18240.00
2022-08-05T09:05:17.245Z,19360.00
2022-08-05T09:06:15.788Z,20800.00
2022-08-05T09:07:19.568Z,21024.00
2022-08-05T09:08:11.714Z,20224.00
2022-08-05T09:09:10.694Z,20224.00
2022-08-05T09:10:10.714Z,19872.00
2022-08-05T09:11:12.246Z,18368.00
2022-08-05T09:12:20.739Z,17248.00
2022-08-05T09:13:11.666Z,16008.00
2022-08-05T09:14:57.272Z,15000.00
2022-08-05T09:15:11.644Z,15084.00
2022-08-05T09:16:14.529Z,15732.00
2022-08-05T09:17:11.608Z,16448.00
2022-08-05T09:18:13.451Z,16384.00
2022-08-05T09:19:12.046Z,16576.00
2022-08-05T09:20:10.670Z,17984.00
2022-08-05T09:21:11.767Z,19424.00
2022-08-05T09:22:23.368Z,21600.00
2022-08-05T09:23:19.819Z,21280.00
2022-08-05T09:24:11.611Z,22208.00
2022-08-05T09:25:24.085Z,27104.00
2022-08-05T09:26:11.517Z,30400.00
2022-08-05T09:27:11.480Z,33152.00
2022-08-05T09:28:11.502Z,29920.00
2022-08-05T09:29:10.479Z,35392.00
2022-08-05T09:30:16.549Z,36000.00
2022-08-05T09:31:43.960Z,50560.00
2022-08-05T09:32:42.353Z,34336.00
2022-08-05T09:33:11.472Z,31904.00
2022-08-05T09:34:11.454Z,26144.00
2022-08-05T09:35:10.406Z,22528.00
2022-08-05T09:36:11.758Z,18240.00
2022-08-05T09:37:15.272Z,19040.00
2022-08-05T09:38:13.002Z,19936.00
2022-08-05T09:39:17.969Z,17984.00
2022-08-05T09:40:11.498Z,18048.00
2022-08-05T09:41:10.353Z,21664.00
2022-08-05T09:42:11.456Z,24096.00
2022-08-05T09:43:10.329Z,24704.00
2022-08-05T09:44:11.194Z,19104.00
2022-08-05T09:45:17.895Z,21856.00
2022-08-05T09:46:11.899Z,33472.00
2022-08-05T09:47:13.951Z,30848.00
2022-08-05T09:48:11.294Z,32800.00
2022-08-05T09:49:19.616Z,28736.00
2022-08-05T09:50:11.264Z,24832.00
2022-08-05T09:51:14.799Z,20960.00
2022-08-05T09:52:11.241Z,15876.00
2022-08-05T09:53:13.069Z,15944.00
2022-08-05T09:54:11.273Z,21888.00
2022-08-05T09:55:56.451Z,22304.00
2022-08-05T09:56:12.951Z,17760.00
2022-08-05T09:57:23.393Z,13552.00
2022-08-05T09:58:11.223Z,8904.00
2022-08-05T09:59:10.143Z,7336.00
2022-08-05T10:00:11.147Z,7520.00
2022-08-05T10:01:15.421Z,8988.00
2022-08-05T10:02:11.206Z,9480.00
2022-08-05T10:03:10.123Z,10976.00
2022-08-05T10:04:10.973Z,11600.00
2022-08-05T10:05:10.076Z,12312.00
2022-08-05T10:06:14.711Z,12460.00
2022-08-05T10:07:20.134Z,10048.00
2022-08-05T10:08:37.797Z,9688.00
2022-08-05T10:09:25.177Z,9112.00
2022-08-05T10:10:15.041Z,8696.00
2022-08-05T10:11:10.008Z,7844.00
2022-08-05T10:12:30.655Z,7940.00
2022-08-05T10:13:10.998Z,8920.00
2022-08-05T10:14:10.083Z,8164.00
2022-08-05T10:15:09.989Z,7796.00
2022-08-05T10:16:10.015Z,8084.00
2022-08-05T10:17:09.970Z,7184.00
2022-08-05T10:18:10.976Z,6600.00
2022-08-05T10:19:10.201Z,6616.00
2022-08-05T10:20:10.910Z,6416.00
2022-08-05T10:21:11.921Z,6832.00
2022-08-05T10:22:15.692Z,7780.00
2022-08-05T10:23:34.473Z,8528.00
2022-08-05T10:24:11.252Z,7684.00
2022-08-05T10:25:09.873Z,6864.00
2022-08-05T10:26:14.478Z,6028.00
2022-08-05T10:27:10.908Z,5164.00
2022-08-05T10:28:17.339Z,4876.00
2022-08-05T10:29:10.856Z,5700.00
2022-08-05T10:31:20.141Z,5612.00
2022-08-05T10:32:52.971Z,7496.00
2022-08-05T10:32:53.602Z,7352.00
2022-08-05T10:33:14.800Z,5860.00
2022-08-05T10:34:09.938Z,7228.00
2022-08-05T10:35:09.767Z,9132.00
2022-08-05T10:36:09.784Z,8944.00
2022-08-05T10:37:09.746Z,6788.00
2022-08-05T10:38:11.939Z,8016.00
2022-08-05T10:39:11.634Z,11176.00
2022-08-05T10:40:16.886Z,9748.00
2022-08-05T10:41:12.406Z,9072.00
2022-08-05T10:42:11.349Z,8840.00
2022-08-05T10:43:11.159Z,6948.00
2022-08-05T10:44:09.767Z,8700.00
2022-08-05T10:45:23.919Z,8792.00
2022-08-05T10:46:10.801Z,12924.00
2022-08-05T10:47:10.248Z,11504.00
2022-08-05T10:48:29.717Z,9188.00
2022-08-05T10:49:16.565Z,10416.00
2022-08-05T10:50:20.632Z,10696.00
2022-08-05T10:51:22.062Z,9956.00
2022-08-05T10:52:10.722Z,8012.00
2022-08-05T10:53:09.573Z,8816.00
2022-08-05T10:54:28.146Z,10520.00
2022-08-05T10:55:10.574Z,11416.00
2022-08-05T10:56:21.204Z,14404.00
2022-08-05T10:57:10.524Z,12020.00
2022-08-05T10:58:09.513Z,9824.00
2022-08-05T10:59:12.410Z,10532.00
2022-08-05T11:00:14.768Z,11120.00
2022-08-05T11:01:11.421Z,12628.00
2022-08-05T11:02:14.664Z,12168.00
2022-08-05T11:03:23.285Z,12704.00
2022-08-05T11:04:10.517Z,10748.00
2022-08-05T11:05:09.529Z,9304.00
2022-08-05T11:06:16.276Z,10564.00
2022-08-05T11:07:10.430Z,8972.00
2022-08-05T11:08:27.541Z,9576.00
2022-08-05T11:09:10.401Z,12208.00
2022-08-05T11:10:10.428Z,9992.00
2022-08-05T11:11:16.591Z,11348.00
2022-08-05T11:12:10.451Z,9912.00
2022-08-05T11:13:09.349Z,10480.00
2022-08-05T11:14:09.464Z,11396.00
2022-08-05T11:15:19.467Z,11824.00
2022-08-05T11:16:10.390Z,12684.00
2022-08-05T11:17:56.739Z,14196.00
2022-08-05T11:18:11.779Z,16100.00
2022-08-05T11:20:11.215Z,18016.00
2022-08-05T11:20:18.067Z,19136.00
2022-08-05T11:21:11.813Z,20000.00
2022-08-05T11:22:09.261Z,19328.00
2022-08-05T11:23:10.558Z,20512.00
2022-08-05T11:24:30.403Z,21568.00
2022-08-05T11:25:37.301Z,20096.00
2022-08-05T11:26:10.234Z,17248.00
2022-08-05T11:27:09.203Z,19776.00
2022-08-05T11:28:09.225Z,21152.00
2022-08-05T11:29:12.880Z,25248.00
2022-08-05T11:30:10.513Z,25600.00
2022-08-05T11:31:09.165Z,18816.00
2022-08-05T11:32:09.261Z,19296.00
2022-08-05T11:33:13.790Z,21440.00
2022-08-05T11:34:14.780Z,25536.00
2022-08-05T11:35:10.157Z,25088.00
2022-08-05T11:36:10.115Z,24544.00
2022-08-05T11:38:28.357Z,24192.00
2022-08-05T11:38:29.987Z,22880.00
2022-08-05T11:39:10.144Z,23136.00
2022-08-05T11:40:09.113Z,25184.00
2022-08-05T11:41:34.526Z,27136.00
2022-08-05T11:42:10.058Z,27456.00
2022-08-05T11:43:10.030Z,28096.00
2022-08-05T11:44:09.217Z,29120.00
2022-08-05T11:45:14.205Z,30080.00
2022-08-05T11:46:15.340Z,32896.00
2022-08-05T11:47:48.903Z,40224.00
2022-08-05T11:48:11.494Z,41216.00
2022-08-05T11:49:10.073Z,46240.00
2022-08-05T11:50:08.987Z,54304.00
2022-08-05T11:51:08.950Z,58016.00
2022-08-05T11:52:11.735Z,49728.00
2022-08-05T11:53:09.948Z,46944.00
2022-08-05T11:54:09.013Z,44224.00
2022-08-05T11:55:10.574Z,33888.00
2022-08-05T11:56:11.403Z,28832.00
2022-08-05T11:57:24.229Z,24704.00
2022-08-05T11:58:12.038Z,23456.00
2022-08-05T11:59:13.796Z,23712.00
2022-08-05T12:00:10.087Z,24864.00
2022-08-05T12:01:10.589Z,22464.00
2022-08-05T12:02:24.042Z,17568.00
2022-08-05T12:03:09.906Z,15196.00
2022-08-05T12:04:08.871Z,13772.00
2022-08-05T12:05:18.426Z,12504.00
2022-08-05T12:06:10.812Z,12180.00
2022-08-05T12:07:09.216Z,12676.00
2022-08-05T12:08:11.457Z,13592.00
2022-08-05T12:09:08.759Z,12692.00
2022-08-05T12:10:11.625Z,11716.00
2022-08-05T12:11:08.738Z,11756.00
2022-08-05T12:12:08.751Z,14260.00
2022-08-05T12:13:15.908Z,21568.00
2022-08-05T12:14:10.383Z,39360.00
2022-08-05T12:15:08.694Z,69248.00
2022-08-05T12:16:14.860Z,56000.00
2022-08-05T12:18:02.849Z,102112.00
2022-08-05T12:18:10.736Z,74048.00
2022-08-05T12:19:08.734Z,41216.00
2022-08-05T12:20:26.488Z,39360.00
2022-08-05T12:21:09.614Z,130848.00
2022-08-05T12:22:09.657Z,127136.00